Wabasha, Minnesota
Current Conditions -  °F | °C
As of 3:30 PM on Saturday 20 Dec 2014 (Local Time) from KRGK Reporting Station
Haze Haze  
Wind Chill: 34°   Ceiling: 1300
Heat Index: 34°   Visibility: 4mi
Dew Point: 28°   Wind: 3mph
Humidity: 81%   Direction: 150°SSE
Pressure: 30.14"   Gusts: NA
Location:  44.38°N, 92.04°W
Report Text: KRGK 202130Z AUTO 15003KT 4SM BR BKN013 BKN019 OVC024 01/M02 A3014 RMK AO2
Loading
Personal Weather Stations






























Interactive Weather Map New forecast layout! Learn more

10-Day Weather Forecast

Advertisements
Track Severe Weather on mobile